createdAt,value
2022-11-25T00:00:29.017Z,98679.75
2022-11-25T00:03:20.613Z,98681.62
2022-11-25T00:05:53.365Z,98681.48
2022-11-25T00:08:25.976Z,98684.55
2022-11-25T00:11:01.450Z,98682.91
2022-11-25T00:13:33.770Z,98687.17
2022-11-25T00:16:07.184Z,98686.41
2022-11-25T00:18:39.101Z,98689.16
2022-11-25T00:21:13.075Z,98691.16
2022-11-25T00:23:44.866Z,98692.66
2022-11-25T00:26:17.960Z,98692.27
2022-11-25T00:28:50.283Z,98693.63
2022-11-25T00:31:25.531Z,98699.03
2022-11-25T00:33:57.810Z,98699.86
2022-11-25T00:36:32.461Z,98706.97
2022-11-25T00:39:06.425Z,98707.66
2022-11-25T00:41:55.779Z,98708.69
2022-11-25T00:44:37.853Z,98706.00
2022-11-25T00:47:12.213Z,98708.56
2022-11-25T00:49:42.720Z,98716.05
2022-11-25T00:52:17.265Z,98720.65
2022-11-25T00:54:49.830Z,98718.13
2022-11-25T00:57:24.916Z,98718.64
2022-11-25T00:59:56.453Z,98717.85
2022-11-25T01:02:28.054Z,98717.46
2022-11-25T01:04:59.779Z,98715.86
2022-11-25T01:07:31.503Z,98715.86
2022-11-25T01:10:03.025Z,98711.55
2022-11-25T01:12:34.523Z,98711.54
2022-11-25T01:15:07.517Z,98716.00
2022-11-25T01:17:39.007Z,98715.89
2022-11-25T01:20:12.932Z,98718.42
2022-11-25T01:22:44.555Z,98720.45
2022-11-25T01:25:16.502Z,98718.60
2022-11-25T01:27:48.001Z,98713.84
2022-11-25T01:30:19.916Z,98711.74
2022-11-25T01:32:51.443Z,98709.38
2022-11-25T01:35:22.917Z,98708.33
2022-11-25T01:37:54.397Z,98705.48
2022-11-25T01:40:25.926Z,98704.96
2022-11-25T01:42:57.441Z,98708.02
2022-11-25T01:45:40.142Z,98702.97
2022-11-25T01:48:18.099Z,98704.08
2022-11-25T01:50:50.784Z,98706.95
2022-11-25T01:53:23.140Z,98706.93
2022-11-25T01:55:59.659Z,98703.34
2022-11-25T01:58:35.144Z,98701.61
2022-11-25T02:01:07.312Z,98704.73
2022-11-25T02:03:43.072Z,98704.42
2022-11-25T02:06:20.200Z,98704.77
2022-11-25T02:08:55.337Z,98704.77
2022-11-25T02:11:30.718Z,98708.75
2022-11-25T02:14:03.606Z,98711.16
2022-11-25T02:16:35.189Z,98714.37
2022-11-25T02:19:07.893Z,98712.61
2022-11-25T02:21:47.929Z,98716.94
2022-11-25T02:24:24.194Z,98716.99
2022-11-25T02:26:55.747Z,98715.83
2022-11-25T02:29:28.648Z,98718.25
2022-11-25T02:32:00.275Z,98720.08
2022-11-25T02:34:31.929Z,98722.33
2022-11-25T02:37:04.166Z,98721.30
2022-11-25T02:39:35.689Z,98724.55
2022-11-25T02:42:08.022Z,98722.81
2022-11-25T02:44:39.521Z,98719.61
2022-11-25T02:47:11.079Z,98719.14
2022-11-25T02:49:42.612Z,98721.98
2022-11-25T02:52:14.113Z,98721.94
2022-11-25T02:54:45.578Z,98725.82
2022-11-25T02:57:17.081Z,98729.77
2022-11-25T02:59:48.651Z,98728.48
2022-11-25T03:02:20.354Z,98729.93
2022-11-25T03:04:51.827Z,98728.02
2022-11-25T03:07:23.391Z,98728.44
2022-11-25T03:09:55.041Z,98730.35
2022-11-25T03:12:26.565Z,98730.64
2022-11-25T03:14:58.109Z,98728.31
2022-11-25T03:17:29.640Z,98731.42
2022-11-25T03:20:01.327Z,98732.14
2022-11-25T03:22:32.797Z,98735.59
2022-11-25T03:25:04.901Z,98735.71
2022-11-25T03:27:38.208Z,98735.61
2022-11-25T03:30:13.595Z,98735.77
2022-11-25T03:32:45.176Z,98736.60
2022-11-25T03:35:17.627Z,98737.45
2022-11-25T03:37:49.554Z,98737.11
2022-11-25T03:40:21.339Z,98745.46
2022-11-25T03:42:52.878Z,98745.44
2022-11-25T03:45:24.475Z,98751.95
2022-11-25T03:47:55.997Z,98748.59
2022-11-25T03:50:27.580Z,98749.89
2022-11-25T03:52:59.212Z,98754.55
2022-11-25T03:55:30.778Z,98757.36
2022-11-25T03:58:02.320Z,98755.45
2022-11-25T04:00:34.084Z,98753.46
2022-11-25T04:03:05.726Z,98752.35
2022-11-25T04:05:37.401Z,98748.80
2022-11-25T04:08:09.204Z,98750.77
2022-11-25T04:10:40.771Z,98749.14
2022-11-25T04:13:12.300Z,98753.88
2022-11-25T04:15:48.655Z,98753.11
2022-11-25T04:18:21.097Z,98751.00
2022-11-25T04:20:52.771Z,98749.55
2022-11-25T04:23:24.450Z,98754.95
2022-11-25T04:25:55.997Z,98757.30
2022-11-25T04:28:27.479Z,98757.84
2022-11-25T04:30:59.073Z,98759.63
2022-11-25T04:33:30.889Z,98757.66
2022-11-25T04:36:02.538Z,98757.98
2022-11-25T04:38:34.106Z,98760.25
2022-11-25T04:41:05.799Z,98761.42
2022-11-25T04:43:37.486Z,98765.12
2022-11-25T04:46:14.727Z,98771.66
2022-11-25T04:48:46.809Z,98771.76
2022-11-25T04:51:18.648Z,98776.69
2022-11-25T04:53:50.103Z,98779.38
2022-11-25T04:56:22.268Z,98777.56
2022-11-25T04:59:11.148Z,98781.35
2022-11-25T05:01:42.818Z,98783.55
2022-11-25T05:04:14.493Z,98785.95
2022-11-25T05:06:46.174Z,98789.18
2022-11-25T05:09:17.677Z,98789.69
2022-11-25T05:11:49.555Z,98791.75
2022-11-25T05:14:22.731Z,98793.05
2022-11-25T05:16:54.477Z,98802.77
2022-11-25T05:19:26.156Z,98799.95
2022-11-25T05:21:57.914Z,98802.70
2022-11-25T05:24:29.656Z,98807.80
2022-11-25T05:27:01.417Z,98812.79
2022-11-25T05:29:32.967Z,98809.11
2022-11-25T05:32:04.964Z,98807.21
2022-11-25T05:34:36.627Z,98815.33
2022-11-25T05:37:09.441Z,98813.73
2022-11-25T05:39:41.344Z,98816.97
2022-11-25T05:42:12.875Z,98817.11
2022-11-25T05:44:44.417Z,98819.69
2022-11-25T05:47:15.929Z,98823.50
2022-11-25T05:49:47.408Z,98825.03
2022-11-25T05:52:18.895Z,98824.77
2022-11-25T05:54:54.395Z,98827.02
2022-11-25T05:57:29.203Z,98828.65
2022-11-25T06:00:00.725Z,98824.39
2022-11-25T06:02:32.367Z,98826.94
2022-11-25T06:05:04.460Z,98830.00
2022-11-25T06:07:36.039Z,98830.61
2022-11-25T06:10:10.750Z,98832.98
2022-11-25T06:12:42.266Z,98833.01
2022-11-25T06:15:14.916Z,98837.15
2022-11-25T06:17:46.917Z,98836.91
2022-11-25T06:20:18.823Z,98839.86
2022-11-25T06:22:50.653Z,98842.29
2022-11-25T06:25:22.372Z,98844.34
2022-11-25T06:30:45.878Z,98841.58
2022-11-25T06:33:17.698Z,98845.33
2022-11-25T06:35:49.299Z,98842.08
2022-11-25T06:38:20.819Z,98842.23
2022-11-25T06:40:54.139Z,98842.40
2022-11-25T06:43:28.288Z,98844.75
2022-11-25T06:46:04.755Z,98847.41
2022-11-25T06:48:38.840Z,98850.41
2022-11-25T06:51:14.928Z,98852.04
2022-11-25T06:53:47.045Z,98850.38
2022-11-25T06:56:21.111Z,98853.56
2022-11-25T06:58:53.466Z,98854.84
2022-11-25T07:01:27.176Z,98860.77
2022-11-25T07:04:03.208Z,98861.75
2022-11-25T07:06:35.112Z,98864.67
2022-11-25T07:09:07.577Z,98867.19
2022-11-25T07:11:41.073Z,98871.34
2022-11-25T07:14:15.578Z,98872.52
2022-11-25T07:16:48.652Z,98869.83
2022-11-25T07:19:21.531Z,98868.80
2022-11-25T07:21:53.118Z,98873.98
2022-11-25T07:24:24.786Z,98882.10
2022-11-25T07:26:56.351Z,98883.46
2022-11-25T07:32:19.725Z,98884.11
2022-11-25T07:34:52.789Z,98883.23
2022-11-25T07:37:25.358Z,98885.08
2022-11-25T07:39:56.987Z,98883.61
2022-11-25T07:42:28.520Z,98885.74
2022-11-25T07:45:00.407Z,98889.79
2022-11-25T07:47:34.639Z,98898.20
2022-11-25T07:50:07.873Z,98895.55
2022-11-25T07:52:41.952Z,98898.14
2022-11-25T07:55:13.621Z,98897.13
2022-11-25T07:57:45.162Z,98898.58
2022-11-25T08:00:18.983Z,98896.16
2022-11-25T08:02:50.978Z,98899.54
2022-11-25T08:05:22.653Z,98898.27
2022-11-25T08:07:54.239Z,98904.41
2022-11-25T08:10:25.949Z,98902.80
2022-11-25T08:12:57.525Z,98907.02
2022-11-25T08:15:29.143Z,98905.33
2022-11-25T08:18:00.713Z,98909.46
2022-11-25T08:20:32.289Z,98914.08
2022-11-25T08:23:04.002Z,98912.35
2022-11-25T08:25:39.948Z,98912.69
2022-11-25T08:28:11.848Z,98907.34
2022-11-25T08:30:43.368Z,98912.91
2022-11-25T08:33:14.894Z,98916.48
2022-11-25T08:35:53.625Z,98915.24
2022-11-25T08:38:25.630Z,98911.73
2022-11-25T08:40:57.770Z,98912.61
2022-11-25T08:43:30.174Z,98912.81
2022-11-25T08:46:01.726Z,98919.89
2022-11-25T08:48:34.115Z,98918.77
2022-11-25T08:51:11.329Z,98917.96
2022-11-25T08:53:43.962Z,98920.69
2022-11-25T08:56:16.158Z,98922.96
2022-11-25T08:58:48.842Z,98924.83
2022-11-25T09:01:21.775Z,98928.02
2022-11-25T09:03:57.057Z,98927.90
2022-11-25T09:06:30.181Z,98930.30
2022-11-25T09:09:02.649Z,98933.23
2022-11-25T09:11:34.224Z,98930.73
2022-11-25T09:14:05.807Z,98928.40
2022-11-25T09:16:37.618Z,98928.16
2022-11-25T09:19:09.355Z,98934.27
2022-11-25T09:21:40.860Z,98933.65
2022-11-25T09:24:13.231Z,98931.88
2022-11-25T09:26:45.214Z,98928.70
2022-11-25T09:29:16.924Z,98935.02
2022-11-25T09:31:54.493Z,98930.95
2022-11-25T09:34:26.693Z,98930.22
2022-11-25T09:36:58.244Z,98926.20
2022-11-25T09:39:30.959Z,98925.08
2022-11-25T09:42:40.440Z,98925.37
2022-11-25T09:45:38.659Z,98926.48
2022-11-25T09:48:27.361Z,98928.23
2022-11-25T09:51:08.765Z,98931.59
2022-11-25T09:53:47.688Z,98929.91
2022-11-25T09:56:29.786Z,98931.98
2022-11-25T09:59:08.301Z,98926.73
2022-11-25T10:01:48.763Z,98925.38
2022-11-25T10:04:26.886Z,98924.14
2022-11-25T10:07:02.483Z,98931.18
2022-11-25T10:09:36.884Z,98924.54
2022-11-25T10:12:19.106Z,98926.58
2022-11-25T10:14:55.129Z,98926.13
2022-11-25T10:17:36.809Z,98930.36
2022-11-25T10:20:14.032Z,98927.14
2022-11-25T10:22:47.790Z,98923.33
2022-11-25T10:25:20.122Z,98929.14
2022-11-25T10:27:58.344Z,98922.66
2022-11-25T10:30:36.732Z,98918.40
2022-11-25T10:33:17.877Z,98921.48
2022-11-25T10:35:53.687Z,98914.48
2022-11-25T10:38:31.375Z,98909.18
2022-11-25T10:41:05.162Z,98912.39
2022-11-25T10:43:35.530Z,98916.90
2022-11-25T10:46:12.502Z,98924.41
2022-11-25T10:48:55.639Z,98922.69
2022-11-25T10:51:42.182Z,98922.48
2022-11-25T10:54:18.697Z,98925.67
2022-11-25T10:56:57.612Z,98926.73
2022-11-25T10:59:33.478Z,98930.56
2022-11-25T11:02:22.278Z,98926.48
2022-11-25T11:05:01.261Z,98924.16
2022-11-25T11:07:34.546Z,98920.02
2022-11-25T11:10:18.653Z,98924.21
2022-11-25T11:12:59.015Z,98920.07
2022-11-25T11:15:32.271Z,98923.13
2022-11-25T11:18:25.053Z,98923.44
2022-11-25T11:21:00.552Z,98923.08
2022-11-25T11:23:47.728Z,98922.27
2022-11-25T11:26:26.236Z,98926.18
2022-11-25T11:29:12.676Z,98926.74
2022-11-25T11:31:50.039Z,98925.86
2022-11-25T11:34:48.099Z,98931.52
2022-11-25T11:37:37.703Z,98931.61
2022-11-25T11:40:26.973Z,98935.11
2022-11-25T11:43:21.507Z,98933.96
2022-11-25T11:46:07.087Z,98933.66
2022-11-25T11:48:41.942Z,98933.96
2022-11-25T11:51:29.125Z,98933.23
2022-11-25T11:54:09.426Z,98929.53
2022-11-25T11:56:43.880Z,98935.29
2022-11-25T11:59:49.699Z,98937.50
2022-11-25T12:02:32.796Z,98933.67
2022-11-25T12:05:19.630Z,98934.41
2022-11-25T12:08:01.779Z,98929.92
2022-11-25T12:10:38.919Z,98933.17
2022-11-25T12:13:18.380Z,98931.78
2022-11-25T12:15:56.367Z,98935.36
2022-11-25T12:18:41.959Z,98931.48
2022-11-25T12:21:28.929Z,98929.62
2022-11-25T12:24:06.061Z,98928.17
2022-11-25T12:26:46.878Z,98932.23
2022-11-25T12:29:26.462Z,98936.11
2022-11-25T12:32:04.704Z,98934.67
2022-11-25T12:34:44.723Z,98941.11
2022-11-25T12:37:25.084Z,98945.70
2022-11-25T12:40:06.086Z,98941.73
2022-11-25T12:42:41.314Z,98945.33
2022-11-25T12:45:21.771Z,98942.00
2022-11-25T12:47:54.405Z,98945.95
2022-11-25T12:50:39.083Z,98948.80
2022-11-25T12:53:17.488Z,98941.42
2022-11-25T12:55:48.993Z,98941.20
2022-11-25T12:58:40.789Z,98943.45
2022-11-25T13:01:26.935Z,98946.59
2022-11-25T13:04:30.716Z,98948.20
2022-11-25T13:07:25.024Z,98953.05
2022-11-25T13:10:27.231Z,98950.65
2022-11-25T13:13:18.258Z,98954.52
2022-11-25T13:15:53.411Z,98950.83
2022-11-25T13:18:28.101Z,98951.86
2022-11-25T13:21:09.397Z,98952.15
2022-11-25T13:23:49.777Z,98957.61
2022-11-25T13:26:51.630Z,98953.87
2022-11-25T13:30:01.201Z,98953.64
2022-11-25T13:32:40.195Z,98961.81
2022-11-25T13:35:35.874Z,98959.02
2022-11-25T13:38:47.854Z,98962.56
2022-11-25T13:41:37.853Z,98964.86
2022-11-25T13:44:28.191Z,98963.46
2022-11-25T13:47:02.901Z,98964.33
2022-11-25T13:49:44.284Z,98963.04
2022-11-25T13:52:41.793Z,98967.72
2022-11-25T13:55:32.995Z,98972.35
2022-11-25T13:58:15.621Z,98972.76
2022-11-25T14:01:05.930Z,98971.98
2022-11-25T14:04:00.154Z,98979.61
2022-11-25T14:07:02.857Z,98978.08
2022-11-25T14:09:58.126Z,98981.21
2022-11-25T14:12:49.299Z,98985.77
2022-11-25T14:15:48.886Z,98986.03
2022-11-25T14:19:16.939Z,98983.63
2022-11-25T14:21:56.401Z,98987.95
2022-11-25T14:24:38.263Z,98992.87
2022-11-25T14:27:17.776Z,98988.44
2022-11-25T14:29:53.955Z,98988.25
2022-11-25T14:32:30.361Z,98985.82
2022-11-25T14:35:09.320Z,98991.21
2022-11-25T14:37:47.236Z,98990.02
2022-11-25T14:40:23.033Z,98991.63
2022-11-25T14:43:00.496Z,98993.04
2022-11-25T14:45:34.444Z,98995.41
2022-11-25T14:48:18.272Z,98994.76
2022-11-25T14:51:00.733Z,98996.33
2022-11-25T14:53:43.007Z,98995.68
2022-11-25T14:56:25.091Z,98998.46
2022-11-25T14:58:58.873Z,99001.91
2022-11-25T15:01:29.590Z,98999.39
2022-11-25T15:04:14.821Z,98998.03
2022-11-25T15:06:52.519Z,98999.70
2022-11-25T15:09:26.860Z,98999.55
2022-11-25T15:12:02.270Z,99001.79
2022-11-25T15:14:37.496Z,99004.52
2022-11-25T15:17:21.653Z,99006.55
2022-11-25T15:19:54.752Z,99004.20
2022-11-25T15:22:26.562Z,99003.52
2022-11-25T15:25:09.960Z,99007.30
2022-11-25T15:27:46.939Z,99003.20
2022-11-25T15:30:24.687Z,99008.99
2022-11-25T15:32:57.557Z,99013.73
2022-11-25T15:35:30.459Z,99011.33
2022-11-25T15:38:17.263Z,99016.84
2022-11-25T15:40:57.584Z,99013.70
2022-11-25T15:43:31.740Z,99017.56
2022-11-25T15:46:06.300Z,99017.50
2022-11-25T15:48:42.209Z,99013.31
2022-11-25T15:51:26.148Z,99021.79
2022-11-25T15:54:03.013Z,99025.02
2022-11-25T15:56:38.797Z,99024.35
2022-11-25T15:59:42.708Z,99026.67
2022-11-25T16:02:39.586Z,99024.28
2022-11-25T16:05:31.996Z,99027.17
2022-11-25T16:08:24.669Z,99026.05
2022-11-25T16:11:01.018Z,99020.77
2022-11-25T16:13:40.155Z,99022.17
2022-11-25T16:16:21.498Z,99019.43
2022-11-25T16:19:12.722Z,99022.41
2022-11-25T16:21:51.081Z,99021.30
2022-11-25T16:24:35.244Z,99027.28
2022-11-25T16:27:15.094Z,99028.83
2022-11-25T16:29:54.378Z,99027.14
2022-11-25T16:32:28.000Z,99029.91
2022-11-25T16:35:12.653Z,99025.61
2022-11-25T16:40:39.196Z,99031.04
2022-11-25T16:43:18.709Z,99035.31
2022-11-25T16:45:53.079Z,99037.31
2022-11-25T16:48:25.645Z,99039.65
2022-11-25T16:50:58.433Z,99037.05
2022-11-25T16:53:30.096Z,99038.86
2022-11-25T16:56:02.999Z,99036.63
2022-11-25T16:58:34.552Z,99039.35
2022-11-25T17:01:06.606Z,99043.04
2022-11-25T17:03:38.404Z,99041.58
2022-11-25T17:06:21.717Z,99043.12
2022-11-25T17:08:54.165Z,99043.89
2022-11-25T17:11:30.440Z,99045.88
2022-11-25T17:14:05.107Z,99055.20
2022-11-25T17:16:37.179Z,99064.89
2022-11-25T17:19:13.997Z,99059.48
2022-11-25T17:21:46.164Z,99067.14
2022-11-25T17:24:21.431Z,99067.81
2022-11-25T17:26:57.216Z,99068.23
2022-11-25T17:29:35.472Z,99076.44
2022-11-25T17:32:08.195Z,99077.94
2022-11-25T17:34:40.136Z,99078.86
2022-11-25T17:37:18.058Z,99076.60
2022-11-25T17:39:50.523Z,99081.73
2022-11-25T17:42:28.691Z,99080.48
2022-11-25T17:45:01.319Z,99078.39
2022-11-25T17:47:33.043Z,99082.16
2022-11-25T17:50:06.654Z,99085.89
2022-11-25T17:52:38.271Z,99086.79
2022-11-25T17:55:10.963Z,99086.29
2022-11-25T17:57:42.648Z,99087.20
2022-11-25T18:00:18.923Z,99089.05
2022-11-25T18:02:51.193Z,99085.70
2022-11-25T18:05:25.153Z,99084.35
2022-11-25T18:07:56.984Z,99082.38
2022-11-25T18:10:30.385Z,99082.72
2022-11-25T18:13:03.669Z,99088.80
2022-11-25T18:15:35.809Z,99084.91
2022-11-25T18:18:23.439Z,99088.52
2022-11-25T18:20:55.938Z,99085.83
2022-11-25T18:23:27.594Z,99085.65
2022-11-25T18:26:02.168Z,99085.77
2022-11-25T18:28:34.432Z,99084.60
2022-11-25T18:31:07.916Z,99086.33
2022-11-25T18:33:40.612Z,99087.80
2022-11-25T18:36:15.284Z,99092.22
2022-11-25T18:38:48.309Z,99094.12
2022-11-25T18:41:22.880Z,99100.96
2022-11-25T18:43:54.740Z,99105.42
2022-11-25T18:46:26.699Z,99105.95
2022-11-25T18:48:58.296Z,99105.22
2022-11-25T18:51:29.894Z,99105.44
2022-11-25T18:54:01.553Z,99107.13
2022-11-25T18:56:33.859Z,99107.12
2022-11-25T18:59:17.666Z,99106.61
2022-11-25T19:01:50.138Z,99110.17
2022-11-25T19:04:21.748Z,99110.67
2022-11-25T19:06:53.594Z,99107.95
2022-11-25T19:09:25.058Z,99107.17
2022-11-25T19:11:56.930Z,99112.13
2022-11-25T19:14:33.248Z,99114.20
2022-11-25T19:17:08.971Z,99112.85
2022-11-25T19:19:42.642Z,99117.05
2022-11-25T19:22:17.696Z,99122.27
2022-11-25T19:24:50.286Z,99126.64
2022-11-25T19:27:24.613Z,99129.19
2022-11-25T19:29:56.133Z,99129.91
2022-11-25T19:32:29.872Z,99136.11
2022-11-25T19:35:02.039Z,99132.86
2022-11-25T19:37:34.273Z,99135.05
2022-11-25T19:40:15.653Z,99134.75
2022-11-25T19:42:48.510Z,99138.29
2022-11-25T19:45:21.692Z,99135.93
2022-11-25T19:47:54.388Z,99139.80
2022-11-25T19:50:29.590Z,99138.45
2022-11-25T19:53:01.271Z,99136.27
2022-11-25T19:55:33.979Z,99141.99
2022-11-25T19:58:05.472Z,99141.69
2022-11-25T20:00:37.062Z,99144.89
2022-11-25T20:03:17.592Z,99149.77
2022-11-25T20:05:49.964Z,99156.80
2022-11-25T20:08:25.315Z,99158.66
2022-11-25T20:10:57.970Z,99163.45
2022-11-25T20:13:29.714Z,99168.95
2022-11-25T20:16:01.606Z,99170.23
2022-11-25T20:18:40.930Z,99176.09
2022-11-25T20:21:21.883Z,99175.29
2022-11-25T20:23:54.061Z,99173.44
2022-11-25T20:26:30.561Z,99176.54
2022-11-25T20:29:02.281Z,99178.99
2022-11-25T20:31:33.886Z,99182.11
2022-11-25T20:34:05.424Z,99180.36
2022-11-25T20:36:37.109Z,99181.70
2022-11-25T20:39:08.861Z,99184.52
2022-11-25T20:41:40.358Z,99185.46
2022-11-25T20:44:14.901Z,99187.23
2022-11-25T20:46:46.456Z,99193.11
2022-11-25T20:49:25.729Z,99193.54
2022-11-25T20:51:57.863Z,99191.48
2022-11-25T20:54:32.893Z,99193.64
2022-11-25T20:57:04.479Z,99192.07
2022-11-25T20:59:37.190Z,99191.60
2022-11-25T21:02:09.100Z,99189.38
2022-11-25T21:04:41.016Z,99187.36
2022-11-25T21:07:17.717Z,99186.55
2022-11-25T21:09:51.798Z,99186.93
2022-11-25T21:12:23.252Z,99187.02
2022-11-25T21:14:54.912Z,99190.88
2022-11-25T21:17:26.884Z,99188.17
2022-11-25T21:19:58.532Z,99187.23
2022-11-25T21:22:30.040Z,99189.79
2022-11-25T21:25:01.645Z,99193.33
2022-11-25T21:27:34.169Z,99193.66
2022-11-25T21:30:07.093Z,99193.42
2022-11-25T21:32:38.673Z,99196.23
2022-11-25T21:35:11.848Z,99198.52
2022-11-25T21:37:45.562Z,99201.13
2022-11-25T21:40:32.596Z,99200.66
2022-11-25T21:43:06.800Z,99198.88
2022-11-25T21:45:38.473Z,99201.98
2022-11-25T21:48:20.961Z,99203.89
2022-11-25T21:50:52.780Z,99205.05
2022-11-25T21:53:24.410Z,99211.36
2022-11-25T21:55:56.512Z,99206.94
2022-11-25T21:58:30.416Z,99207.70
2022-11-25T22:01:03.052Z,99215.23
2022-11-25T22:03:35.188Z,99214.40
2022-11-25T22:06:23.281Z,99213.83
2022-11-25T22:08:55.324Z,99216.83
2022-11-25T22:11:31.718Z,99217.35
2022-11-25T22:14:06.485Z,99219.36
2022-11-25T22:16:38.491Z,99223.33
2022-11-25T22:19:19.269Z,99221.02
2022-11-25T22:21:50.917Z,99223.08
2022-11-25T22:24:23.256Z,99228.22
2022-11-25T22:26:58.130Z,99232.80
2022-11-25T22:29:35.310Z,99235.20
2022-11-25T22:32:12.581Z,99239.80
2022-11-25T22:34:44.893Z,99249.68
2022-11-25T22:37:22.090Z,99247.17
2022-11-25T22:39:53.604Z,99245.98
2022-11-25T22:42:28.100Z,99250.54
2022-11-25T22:45:01.800Z,99250.88
2022-11-25T22:47:40.517Z,99245.40
2022-11-25T22:50:22.120Z,99253.04
2022-11-25T22:52:55.146Z,99260.13
2022-11-25T22:55:28.983Z,99259.58
2022-11-25T22:58:00.373Z,99258.95
2022-11-25T23:00:37.494Z,99257.94
2022-11-25T23:03:16.893Z,99258.98
2022-11-25T23:05:49.964Z,99260.70
2022-11-25T23:08:23.515Z,99267.52
2022-11-25T23:10:56.124Z,99264.04
2022-11-25T23:13:27.879Z,99259.30
2022-11-25T23:16:01.679Z,99264.52
2022-11-25T23:18:38.873Z,99265.48
2022-11-25T23:21:17.737Z,99265.80
2022-11-25T23:23:49.314Z,99269.15
2022-11-25T23:26:20.821Z,99270.08
2022-11-25T23:28:52.418Z,99267.20
2022-11-25T23:31:25.518Z,99269.94
2022-11-25T23:33:57.185Z,99269.83
2022-11-25T23:36:36.762Z,99266.75
2022-11-25T23:39:16.126Z,99271.77
2022-11-25T23:41:48.750Z,99269.18
2022-11-25T23:44:25.715Z,99273.65
2022-11-25T23:47:00.956Z,99281.61
2022-11-25T23:49:36.896Z,99279.73
2022-11-25T23:52:12.994Z,99278.95
2022-11-25T23:54:48.884Z,99277.75
2022-11-25T23:57:23.563Z,99274.77
2022-11-25T23:59:55.241Z,99278.92
